Time;durP1;ratioP1;P1;durP2;ratioP2;P2;SDS_P1;SDS_P2;PMS_P1;PMS_P2;Temp;Humidity;BMP_temperature;BMP_pressure;BME280_temperature;BME280_humidity;BME280_pressure;Samples;Min_cycle;Max_cycle;Signal;HPM_P1;HPM_P2
2023/03/11 00:01:11;;;;;;;;;;;;;;;;;;5048761;28;4924;-63
2023/03/11 00:03:36;;;;;;;;;;;;;;;;;;5048889;28;1499;-63
2023/03/11 00:06:01;;;;;;;;;;;;;;;;;;5042564;28;4685;-63
2023/03/11 00:08:27;;;;;;;;;;;;;;;;;;5046680;28;5058;-63
2023/03/11 00:10:54;;;;;;;;;;;;;;;;;;5046047;28;4446;-63
2023/03/11 00:13:19;;;;;;;;;;;;;;;;;;5041453;28;5171;-62
2023/03/11 00:15:47;;;;;;;;;;;;;;;;;;5047709;28;4647;-63
2023/03/11 00:18:12;;;;;;;;;;;;;;;;;;5045852;28;4770;-62
2023/03/11 00:20:38;;;;;;;;;;;;;;;;;;5047471;28;5035;-64
2023/03/11 00:23:04;;;;;;;;;;;;;;;;;;5038079;28;4579;-63
2023/03/11 00:25:30;;;;;;;;;;;;;;;;;;5044265;28;4724;-64
2023/03/11 00:27:55;;;;;;;;;;;;;;;;;;5048636;28;5196;-63
2023/03/11 00:30:20;;;;;;;;;;;;;;;;;;5046411;28;1121;-63
2023/03/11 00:32:46;;;;;;;;;;;;;;;;;;5039661;28;4425;-63
2023/03/11 00:35:15;;;;;;;;;;;;;;;;;;5042063;28;4478;-63
2023/03/11 00:37:41;;;;;;;;;;;;;;;;;;5033782;28;4867;-63
2023/03/11 00:40:09;;;;;;;;;;;;;;;;;;5039024;28;4967;-63
2023/03/11 00:42:35;;;;;;;;;;;;;;;;;;5043299;28;1388;-63
2023/03/11 00:45:00;;;;;;;;;;;;;;;;;;5045323;28;5468;-63
2023/03/11 00:47:25;;;;;;;;;;;;;;;;;;5047688;28;5235;-65
2023/03/11 00:49:50;;;;;;;;;;;;;;;;;;5040385;28;4499;-63
2023/03/11 00:52:16;;;;;;;;;;;;;;;;;;5042410;28;4459;-63
2023/03/11 00:54:41;;;;;;;;;;;;;;;;;;5047836;28;4964;-63
2023/03/11 00:57:06;;;;;;;;;;;;;;;;;;5048403;28;1253;-63
2023/03/11 00:59:33;;;;;;;;;;;;;;;;;;5046648;28;5625;-63
2023/03/11 01:01:58;;;;;;;;;;;;;;;;;;5044058;28;4486;-63
2023/03/11 01:04:23;;;;;;;;;;;;;;;;;;5040415;28;5025;-64
2023/03/11 01:06:48;;;;;;;;;;;;;;;;;;5045069;28;5049;-63
2023/03/11 01:09:13;;;;;;;;;;;;;;;;;;5047948;28;1107;-63
2023/03/11 01:11:39;;;;;;;;;;;;;;;;;;5041326;28;5027;-62
2023/03/11 01:14:04;;;;;;;;;;;;;;;;;;5044913;28;5074;-63
2023/03/11 01:16:29;;;;;;;;;;;;;;;;;;5042895;28;4685;-63
2023/03/11 01:18:55;;;;;;;;;;;;;;;;;;5043761;28;5184;-63
2023/03/11 01:21:20;;;;;;;;;;;;;;;;;;5044705;28;1130;-63
2023/03/11 01:23:45;;;;;;;;;;;;;;;;;;5045689;28;4411;-63
2023/03/11 01:26:11;;;;;;;;;;;;;;;;;;5042149;28;4443;-63
2023/03/11 01:28:36;;;;;;;;;;;;;;;;;;5037511;28;4940;-62
2023/03/11 01:31:01;;;;;;;;;;;;;;;;;;5039735;28;5013;-63
2023/03/11 01:33:27;;;;;;;;;;;;;;;;;;5034626;28;1981;-63
2023/03/11 01:35:53;;;;;;;;;;;;;;;;;;5044211;28;5048;-63
2023/03/11 01:38:18;;;;;;;;;;;;;;;;;;5046574;28;5691;-63
2023/03/11 01:40:44;;;;;;;;;;;;;;;;;;5042352;28;4451;-63
2023/03/11 01:43:28;;;;;;;;;;;;;;;;;;5044007;28;4473;-63
2023/03/11 01:45:53;;;;;;;;;;;;;;;;;;5042776;28;5003;-63
2023/03/11 01:48:18;;;;;;;;;;;;;;;;;;5047830;28;1062;-63
2023/03/11 01:50:45;;;;;;;;;;;;;;;;;;5046913;28;4597;-63
2023/03/11 01:53:10;;;;;;;;;;;;;;;;;;5046454;28;4888;-63
2023/03/11 01:55:36;;;;;;;;;;;;;;;;;;5046945;28;4518;-63
2023/03/11 01:58:02;;;;;;;;;;;;;;;;;;5077909;28;5311;-62
2023/03/11 02:00:27;;;;;;;;;;;;;;;;;;5046364;28;1225;-64
2023/03/11 02:02:53;;;;;;;;;;;;;;;;;;5053586;28;4548;-63
2023/03/11 02:05:21;;;;;;;;;;;;;;;;;;5053164;28;4592;-63
2023/03/11 02:07:47;;;;;;;;;;;;;;;;;;5053329;28;4900;-63
2023/03/11 02:10:13;;;;;;;;;;;;;;;;;;5050088;28;4491;-65
2023/03/11 02:12:38;;;;;;;;;;;;;;;;;;5042174;28;4464;-63
2023/03/11 02:15:04;;;;;;;;;;;;;;;;;;5042611;28;1116;-63
2023/03/11 02:17:30;;;;;;;;;;;;;;;;;;5053505;28;4416;-62
2023/03/11 02:20:14;;;;;;;;;;;;;;;;;;5048323;28;5045;-64
2023/03/11 02:22:40;;;;;;;;;;;;;;;;;;5049490;28;4430;-62
2023/03/11 02:25:24;;;;;;;;;;;;;;;;;;5047719;28;5166;-62
2023/03/11 02:27:50;;;;;;;;;;;;;;;;;;5040061;28;4474;-63
2023/03/11 02:30:16;;;;;;;;;;;;;;;;;;5041988;28;1455;-63
2023/03/11 02:32:41;;;;;;;;;;;;;;;;;;5049141;28;4614;-63
2023/03/11 02:35:07;;;;;;;;;;;;;;;;;;5051999;28;4425;-64
2023/03/11 02:37:32;;;;;;;;;;;;;;;;;;5084313;28;4645;-63
2023/03/11 02:40:16;;;;;;;;;;;;;;;;;;5043529;28;4630;-64
2023/03/11 02:42:41;;;;;;;;;;;;;;;;;;5038330;28;4469;-62
2023/03/11 02:45:08;;;;;;;;;;;;;;;;;;5049299;28;1270;-63
2023/03/11 02:47:33;;;;;;;;;;;;;;;;;;5051820;28;4446;-62
2023/03/11 02:49:58;;;;;;;;;;;;;;;;;;5044970;28;4477;-63
2023/03/11 02:52:24;;;;;;;;;;;;;;;;;;5049505;28;4505;-63
2023/03/11 02:54:49;;;;;;;;;;;;;;;;;;5041960;28;4543;-62
2023/03/11 02:57:14;;;;;;;;;;;;;;;;;;5038730;28;1356;-63
2023/03/11 02:59:40;;;;;;;;;;;;;;;;;;5044711;28;4815;-63
2023/03/11 03:02:05;;;;;;;;;;;;;;;;;;5042936;28;4639;-62
2023/03/11 03:04:30;;;;;;;;;;;;;;;;;;5045479;28;5098;-64
2023/03/11 03:06:56;;;;;;;;;;;;;;;;;;5042316;28;5298;-65
2023/03/11 03:09:21;;;;;;;;;;;;;;;;;;5047828;28;1490;-62
2023/03/11 03:11:46;;;;;;;;;;;;;;;;;;5042849;28;4995;-63
2023/03/11 03:14:11;;;;;;;;;;;;;;;;;;5045019;28;4835;-63
2023/03/11 03:16:37;;;;;;;;;;;;;;;;;;5041458;28;5047;-63
2023/03/11 03:19:02;;;;;;;;;;;;;;;;;;5049372;28;5159;-63
2023/03/11 03:21:27;;;;;;;;;;;;;;;;;;5048116;28;1331;-63
2023/03/11 03:23:52;;;;;;;;;;;;;;;;;;5042415;28;4405;-62
2023/03/11 03:26:18;;;;;;;;;;;;;;;;;;5034247;28;4848;-63
2023/03/11 03:28:43;;;;;;;;;;;;;;;;;;5048750;28;4454;-62
2023/03/11 03:31:09;;;;;;;;;;;;;;;;;;5040630;28;4505;-63
2023/03/11 03:33:34;;;;;;;;;;;;;;;;;;5046396;28;2119;-63
2023/03/11 03:35:59;;;;;;;;;;;;;;;;;;5041787;28;4831;-63
2023/03/11 03:38:25;;;;;;;;;;;;;;;;;;5041015;28;5182;-64
2023/03/11 03:40:50;;;;;;;;;;;;;;;;;;5039377;28;6182;-62
2023/03/11 03:43:15;;;;;;;;;;;;;;;;;;5045309;28;5087;-63
2023/03/11 03:45:40;;;;;;;;;;;;;;;;;;5048247;28;5055;-63
2023/03/11 03:48:06;;;;;;;;;;;;;;;;;;5049906;28;1427;-63
2023/03/11 03:50:31;;;;;;;;;;;;;;;;;;5047597;28;4479;-63
2023/03/11 03:52:56;;;;;;;;;;;;;;;;;;5048091;28;5085;-64
2023/03/11 03:55:21;;;;;;;;;;;;;;;;;;5048952;28;5241;-63
2023/03/11 03:57:47;;;;;;;;;;;;;;;;;;5046131;28;4665;-62
2023/03/11 04:00:12;;;;;;;;;;;;;;;;;;5047814;28;1177;-62
2023/03/11 04:02:37;;;;;;;;;;;;;;;;;;5047577;28;5476;-63
2023/03/11 04:05:03;;;;;;;;;;;;;;;;;;5046644;28;5122;-62
2023/03/11 04:07:28;;;;;;;;;;;;;;;;;;5043304;28;4705;-63
2023/03/11 04:09:53;;;;;;;;;;;;;;;;;;5048797;28;4675;-63
2023/03/11 04:12:19;;;;;;;;;;;;;;;;;;5046403;28;1993;-62
2023/03/11 04:14:44;;;;;;;;;;;;;;;;;;5048585;28;5438;-63
2023/03/11 04:17:12;;;;;;;;;;;;;;;;;;5048417;28;4418;-63
2023/03/11 04:19:37;;;;;;;;;;;;;;;;;;5046486;28;4742;-63
2023/03/11 04:22:03;;;;;;;;;;;;;;;;;;5043660;28;4447;-63
2023/03/11 04:24:28;;;;;;;;;;;;;;;;;;5048863;28;1197;-62
2023/03/11 04:26:53;;;;;;;;;;;;;;;;;;5048789;28;4599;-63
2023/03/11 04:29:18;;;;;;;;;;;;;;;;;;5047702;28;4829;-63
2023/03/11 04:31:44;;;;;;;;;;;;;;;;;;5048377;28;4683;-63
2023/03/11 04:34:09;;;;;;;;;;;;;;;;;;5047971;28;4557;-63
2023/03/11 04:36:34;;;;;;;;;;;;;;;;;;5034548;28;1365;-63
2023/03/11 04:38:59;;;;;;;;;;;;;;;;;;5045552;28;4571;-64
2023/03/11 04:41:25;;;;;;;;;;;;;;;;;;5039559;28;4974;-64
2023/03/11 04:43:50;;;;;;;;;;;;;;;;;;5046300;28;5024;-63
2023/03/11 04:46:15;;;;;;;;;;;;;;;;;;5048285;28;4467;-63
2023/03/11 04:48:40;;;;;;;;;;;;;;;;;;5044015;28;4432;-63
2023/03/11 04:51:06;;;;;;;;;;;;;;;;;;5044343;28;1397;-63
2023/03/11 04:53:31;;;;;;;;;;;;;;;;;;5048330;28;4712;-63
2023/03/11 04:55:56;;;;;;;;;;;;;;;;;;5048800;28;4639;-64
2023/03/11 04:58:22;;;;;;;;;;;;;;;;;;5048464;28;5047;-63
2023/03/11 05:00:47;;;;;;;;;;;;;;;;;;5048017;28;5058;-63
2023/03/11 05:03:12;;;;;;;;;;;;;;;;;;5044503;28;1265;-64
2023/03/11 05:05:38;;;;;;;;;;;;;;;;;;5047755;28;4984;-64
2023/03/11 05:08:03;;;;;;;;;;;;;;;;;;5047288;28;4627;-63
2023/03/11 05:10:28;;;;;;;;;;;;;;;;;;5044728;28;4950;-63
2023/03/11 05:12:53;;;;;;;;;;;;;;;;;;5042484;28;5095;-63
2023/03/11 05:15:19;;;;;;;;;;;;;;;;;;5048515;28;1112;-63
2023/03/11 05:17:44;;;;;;;;;;;;;;;;;;5043720;28;5649;-63
2023/03/11 05:20:10;;;;;;;;;;;;;;;;;;5047310;28;4623;-62
2023/03/11 05:22:35;;;;;;;;;;;;;;;;;;5047663;28;4423;-63
2023/03/11 05:25:00;;;;;;;;;;;;;;;;;;5047664;28;4475;-63
2023/03/11 05:27:25;;;;;;;;;;;;;;;;;;5046357;28;2003;-63
2023/03/11 05:29:51;;;;;;;;;;;;;;;;;;5047256;28;4895;-63
2023/03/11 05:32:18;;;;;;;;;;;;;;;;;;5037755;28;5054;-63
2023/03/11 05:34:43;;;;;;;;;;;;;;;;;;5047135;28;5104;-62
2023/03/11 05:37:08;;;;;;;;;;;;;;;;;;5046529;28;4660;-62
2023/03/11 05:39:33;;;;;;;;;;;;;;;;;;5047666;28;1205;-63
2023/03/11 05:41:59;;;;;;;;;;;;;;;;;;5037525;28;4943;-62
2023/03/11 05:44:24;;;;;;;;;;;;;;;;;;5047485;28;4491;-63
2023/03/11 05:46:49;;;;;;;;;;;;;;;;;;5042906;28;4673;-63
2023/03/11 05:49:14;;;;;;;;;;;;;;;;;;5078726;28;4838;-64
2023/03/11 05:51:40;;;;;;;;;;;;;;;;;;5047215;28;4579;-63
2023/03/11 05:54:10;;;;;;;;;;;;;;;;;;5046172;28;1221;-63
2023/03/11 05:56:35;;;;;;;;;;;;;;;;;;5047147;28;4400;-63
2023/03/11 05:59:00;;;;;;;;;;;;;;;;;;5046421;28;4467;-62
2023/03/11 06:01:26;;;;;;;;;;;;;;;;;;5040147;28;4483;-63
2023/03/11 06:03:51;;;;;;;;;;;;;;;;;;5046810;28;4944;-63
2023/03/11 06:06:17;;;;;;;;;;;;;;;;;;5047308;28;1118;-63
2023/03/11 06:08:48;;;;;;;;;;;;;;;;;;5040641;28;5389;-63
2023/03/11 06:11:13;;;;;;;;;;;;;;;;;;5074450;28;4445;-64
2023/03/11 06:13:39;;;;;;;;;;;;;;;;;;5038274;28;4682;-63
2023/03/11 06:16:04;;;;;;;;;;;;;;;;;;5042903;28;5102;-63
2023/03/11 06:18:29;;;;;;;;;;;;;;;;;;5045947;28;4790;-63
2023/03/11 06:20:57;;;;;;;;;;;;;;;;;;5046441;28;4423;-63
2023/03/11 06:23:23;;;;;;;;;;;;;;;;;;5046436;28;5061;-63
2023/03/11 06:25:57;;;;;;;;;;;;;;;;;;5046219;28;5006;-63
2023/03/11 06:28:22;;;;;;;;;;;;;;;;;;5040136;28;5158;-63
2023/03/11 06:30:48;;;;;;;;;;;;;;;;;;5046375;28;4739;-63
2023/03/11 06:33:13;;;;;;;;;;;;;;;;;;5045471;28;1909;-63
2023/03/11 06:35:39;;;;;;;;;;;;;;;;;;5046165;28;4415;-63
2023/03/11 06:38:04;;;;;;;;;;;;;;;;;;5043433;28;4780;-63
2023/03/11 06:40:29;;;;;;;;;;;;;;;;;;5037520;28;4696;-63
2023/03/11 06:42:55;;;;;;;;;;;;;;;;;;5045380;28;4671;-63
2023/03/11 06:45:20;;;;;;;;;;;;;;;;;;5049352;28;3317;-63
2023/03/11 06:47:45;;;;;;;;;;;;;;;;;;5048187;28;4802;-63
2023/03/11 06:50:11;;;;;;;;;;;;;;;;;;5052580;28;4542;-63
2023/03/11 06:52:36;;;;;;;;;;;;;;;;;;5045725;28;5023;-63
2023/03/11 06:55:02;;;;;;;;;;;;;;;;;;5048205;28;4575;-63
2023/03/11 06:57:29;;;;;;;;;;;;;;;;;;5036607;28;1182;-62
2023/03/11 06:59:55;;;;;;;;;;;;;;;;;;5044551;28;5264;-64
2023/03/11 07:02:20;;;;;;;;;;;;;;;;;;5049639;28;4718;-63
2023/03/11 07:04:47;;;;;;;;;;;;;;;;;;5045893;28;4526;-63
2023/03/11 07:07:12;;;;;;;;;;;;;;;;;;5045622;28;4676;-64
2023/03/11 07:09:38;;;;;;;;;;;;;;;;;;5039879;28;4806;-62
2023/03/11 07:12:03;;;;;;;;;;;;;;;;;;5040699;28;3153;-62
2023/03/11 07:14:29;;;;;;;;;;;;;;;;;;5040214;28;4862;-64
2023/03/11 07:16:54;;;;;;;;;;;;;;;;;;5039182;28;5039;-64
2023/03/11 07:19:19;;;;;;;;;;;;;;;;;;5048358;28;4766;-62
2023/03/11 07:21:44;;;;;;;;;;;;;;;;;;5046804;28;5205;-63
2023/03/11 07:24:10;;;;;;;;;;;;;;;;;;5037006;28;2747;-63
2023/03/11 07:26:36;;;;;;;;;;;;;;;;;;5043971;28;4416;-64
2023/03/11 07:29:01;;;;;;;;;;;;;;;;;;5046864;28;4665;-63
2023/03/11 07:31:27;;;;;;;;;;;;;;;;;;5046482;28;4932;-65
2023/03/11 07:33:53;;;;;;;;;;;;;;;;;;5048309;28;4489;-64
2023/03/11 07:36:19;;;;;;;;;;;;;;;;;;5036433;28;2647;-68
2023/03/11 07:38:44;;;;;;;;;;;;;;;;;;5035375;28;4628;-66
2023/03/11 07:41:10;;;;;;;;;;;;;;;;;;5048042;28;4952;-65
2023/03/11 07:43:35;;;;;;;;;;;;;;;;;;5043728;28;4646;-71
2023/03/11 07:46:06;;;;;;;;;;;;;;;;;;5041055;28;4740;-71
2023/03/11 07:48:31;;;;;;;;;;;;;;;;;;5045597;28;3249;-71
2023/03/11 07:51:06;;;;;;;;;;;;;;;;;;5045759;28;4974;-72
2023/03/11 07:53:32;;;;;;;;;;;;;;;;;;5043882;28;4651;-71
2023/03/11 07:55:57;;;;;;;;;;;;;;;;;;5044276;28;4839;-70
2023/03/11 07:58:23;;;;;;;;;;;;;;;;;;5047455;28;4573;-70
2023/03/11 08:00:48;;;;;;;;;;;;;;;;;;5047613;28;4631;-70
2023/03/11 08:03:13;;;;;;;;;;;;;;;;;;5047660;28;1279;-71
2023/03/11 08:05:38;;;;;;;;;;;;;;;;;;5041402;28;4467;-71
2023/03/11 08:08:04;;;;;;;;;;;;;;;;;;5040385;28;4504;-70
2023/03/11 08:10:29;;;;;;;;;;;;;;;;;;5046535;28;4639;-71
2023/03/11 08:12:54;;;;;;;;;;;;;;;;;;5045604;28;4664;-70
2023/03/11 08:15:19;;;;;;;;;;;;;;;;;;5040951;28;3043;-70
2023/03/11 08:17:45;;;;;;;;;;;;;;;;;;5039478;28;5045;-61
2023/03/11 08:20:10;;;;;;;;;;;;;;;;;;5037481;28;4442;-63
2023/03/11 08:22:35;;;;;;;;;;;;;;;;;;5047725;28;4927;-66
2023/03/11 08:25:01;;;;;;;;;;;;;;;;;;5046203;28;4522;-69
2023/03/11 08:27:27;;;;;;;;;;;;;;;;;;5048478;28;1173;-61
2023/03/11 08:29:52;;;;;;;;;;;;;;;;;;5045582;28;4586;-62
2023/03/11 08:32:17;;;;;;;;;;;;;;;;;;5041589;28;4864;-66
2023/03/11 08:34:42;;;;;;;;;;;;;;;;;;5040394;28;4464;-76
2023/03/11 08:37:08;;;;;;;;;;;;;;;;;;5033940;28;5073;-75
2023/03/11 08:39:33;;;;;;;;;;;;;;;;;;5037254;28;3305;-75
2023/03/11 08:41:58;;;;;;;;;;;;;;;;;;5044303;28;4394;-75
2023/03/11 08:44:24;;;;;;;;;;;;;;;;;;5041548;28;4989;-71
2023/03/11 08:46:49;;;;;;;;;;;;;;;;;;5045515;28;4666;-70
2023/03/11 08:49:14;;;;;;;;;;;;;;;;;;5052389;28;4522;-73
2023/03/11 08:51:39;;;;;;;;;;;;;;;;;;5049580;28;4525;-63
2023/03/11 08:54:05;;;;;;;;;;;;;;;;;;5045937;28;3364;-64
2023/03/11 08:56:30;;;;;;;;;;;;;;;;;;5045540;28;4819;-64
2023/03/11 08:58:55;;;;;;;;;;;;;;;;;;5047204;28;5060;-70
2023/03/11 09:01:21;;;;;;;;;;;;;;;;;;5048630;28;5401;-63
2023/03/11 09:03:47;;;;;;;;;;;;;;;;;;5046107;28;5085;-68
2023/03/11 09:06:14;;;;;;;;;;;;;;;;;;5041539;28;3303;-70
2023/03/11 09:08:39;;;;;;;;;;;;;;;;;;5050024;28;4617;-71
2023/03/11 09:11:04;;;;;;;;;;;;;;;;;;5047425;28;5028;-69
2023/03/11 09:13:30;;;;;;;;;;;;;;;;;;5045511;28;5064;-64
2023/03/11 09:15:55;;;;;;;;;;;;;;;;;;5041970;28;4465;-68
2023/03/11 09:18:21;;;;;;;;;;;;;;;;;;5043239;28;4711;-69
2023/03/11 09:20:46;;;;;;;;;;;;;;;;;;5047042;28;4405;-69
2023/03/11 09:23:12;;;;;;;;;;;;;;;;;;5038239;28;5811;-68
2023/03/11 09:25:37;;;;;;;;;;;;;;;;;;5051470;28;5151;-69
2023/03/11 09:28:03;;;;;;;;;;;;;;;;;;5043295;28;4658;-68
2023/03/11 09:30:28;;;;;;;;;;;;;;;;;;5045135;28;3427;-72
2023/03/11 09:32:53;;;;;;;;;;;;;;;;;;5074421;28;4658;-66
2023/03/11 09:35:18;;;;;;;;;;;;;;;;;;5041549;28;5007;-64
2023/03/11 09:37:44;;;;;;;;;;;;;;;;;;5039500;28;5560;-67
2023/03/11 09:40:14;;;;;;;;;;;;;;;;;;5038810;28;5097;-72
2023/03/11 09:42:39;;;;;;;;;;;;;;;;;;5037804;28;5565;-67
2023/03/11 09:45:14;;;;;;;;;;;;;;;;;;5042488;28;3326;-71
2023/03/11 09:47:42;;;;;;;;;;;;;;;;;;5039785;28;4494;-69
2023/03/11 09:50:15;;;;;;;;;;;;;;;;;;5045717;28;4497;-71
2023/03/11 09:52:45;;;;;;;;;;;;;;;;;;5045728;28;4902;-66
2023/03/11 09:55:30;;;;;;;;;;;;;;;;;;5049146;28;4569;-69
2023/03/11 09:57:56;;;;;;;;;;;;;;;;;;5041180;28;4899;-68
2023/03/11 10:00:22;;;;;;;;;;;;;;;;;;5046397;28;3151;-62
2023/03/11 10:02:47;;;;;;;;;;;;;;;;;;5039437;28;4817;-69
2023/03/11 10:05:14;;;;;;;;;;;;;;;;;;5043179;28;5046;-68
2023/03/11 10:07:40;;;;;;;;;;;;;;;;;;5039580;28;4990;-63
2023/03/11 10:10:05;;;;;;;;;;;;;;;;;;5040694;28;4967;-62
2023/03/11 10:12:43;;;;;;;;;;;;;;;;;;5047754;28;1988;-69
2023/03/11 10:15:27;;;;;;;;;;;;;;;;;;5041503;28;4431;-61
2023/03/11 10:17:58;;;;;;;;;;;;;;;;;;5041284;28;4711;-60
2023/03/11 10:20:33;;;;;;;;;;;;;;;;;;5042836;28;4469;-58
2023/03/11 10:22:58;;;;;;;;;;;;;;;;;;5049450;28;4685;-62
2023/03/11 10:25:24;;;;;;;;;;;;;;;;;;5045605;28;4515;-64
2023/03/11 10:28:00;;;;;;;;;;;;;;;;;;5040632;28;4843;-68
2023/03/11 10:30:28;;;;;;;;;;;;;;;;;;5048231;28;1140;-58
2023/03/11 10:32:58;;;;;;;;;;;;;;;;;;5046026;28;4466;-60
2023/03/11 10:35:26;;;;;;;;;;;;;;;;;;5045874;28;5059;-60
2023/03/11 10:38:18;;;;;;;;;;;;;;;;;;5045155;28;4502;-62
2023/03/11 10:40:44;;;;;;;;;;;;;;;;;;5043475;28;4634;-60
2023/03/11 10:43:10;;;;;;;;;;;;;;;;;;5045175;28;4606;-57
2023/03/11 10:45:36;;;;;;;;;;;;;;;;;;5070458;28;3248;-57
2023/03/11 10:48:06;;;;;;;;;;;;;;;;;;5047361;28;4995;-57
2023/03/11 10:50:32;;;;;;;;;;;;;;;;;;5080266;28;4898;-57
2023/03/11 10:53:12;;;;;;;;;;;;;;;;;;5046700;28;4506;-57
2023/03/11 10:55:44;;;;;;;;;;;;;;;;;;5042289;28;5582;-57
2023/03/11 10:58:14;;;;;;;;;;;;;;;;;;5048550;28;4837;-58
2023/03/11 11:00:39;;;;;;;;;;;;;;;;;;5047067;28;5084;-57
2023/03/11 11:03:10;;;;;;;;;;;;;;;;;;5049033;28;2055;-57
2023/03/11 11:05:36;;;;;;;;;;;;;;;;;;5030710;28;5115;-56
2023/03/11 11:08:05;;;;;;;;;;;;;;;;;;5048615;28;4458;-57
2023/03/11 11:10:31;;;;;;;;;;;;;;;;;;5032381;28;4459;-57
2023/03/11 11:13:11;;;;;;;;;;;;;;;;;;5047167;28;4565;-57
2023/03/11 11:15:37;;;;;;;;;;;;;;;;;;5049447;28;1129;-56
2023/03/11 11:18:35;;;;;;;;;;;;;;;;;;5045819;28;5029;-57
2023/03/11 11:21:07;;;;;;;;;;;;;;;;;;5053254;28;4641;-57
2023/03/11 11:23:48;;;;;;;;;;;;;;;;;;5045620;28;5007;-57
2023/03/11 11:26:15;;;;;;;;;;;;;;;;;;5048796;28;4473;-57
2023/03/11 11:28:40;;;;;;;;;;;;;;;;;;5047761;28;4455;-57
2023/03/11 11:31:17;;;;;;;;;;;;;;;;;;5047979;28;4971;-57
2023/03/11 11:33:49;;;;;;;;;;;;;;;;;;5048533;28;4714;-57
2023/03/11 11:36:15;;;;;;;;;;;;;;;;;;5045131;28;1130;-57
2023/03/11 11:38:40;;;;;;;;;;;;;;;;;;5038054;28;4456;-57
2023/03/11 11:41:07;;;;;;;;;;;;;;;;;;5030374;28;5076;-57
2023/03/11 11:43:32;;;;;;;;;;;;;;;;;;5044427;28;5568;-56
2023/03/11 11:45:59;;;;;;;;;;;;;;;;;;5046844;28;4565;-57
2023/03/11 11:48:27;;;;;;;;;;;;;;;;;;5048987;28;1131;-57
2023/03/11 11:50:54;;;;;;;;;;;;;;;;;;5045673;28;4461;-57
2023/03/11 11:53:38;;;;;;;;;;;;;;;;;;5046989;28;4617;-57
2023/03/11 11:56:03;;;;;;;;;;;;;;;;;;5044502;28;4776;-57
2023/03/11 11:58:29;;;;;;;;;;;;;;;;;;5080040;28;4668;-57
2023/03/11 12:01:02;;;;;;;;;;;;;;;;;;5046115;28;4511;-57
2023/03/11 12:03:30;;;;;;;;;;;;;;;;;;5046924;28;1201;-57
2023/03/11 12:06:00;;;;;;;;;;;;;;;;;;5046154;28;4702;-57
2023/03/11 12:08:38;;;;;;;;;;;;;;;;;;5026691;28;4478;-57
2023/03/11 12:11:05;;;;;;;;;;;;;;;;;;5044284;28;5017;-57
2023/03/11 12:13:36;;;;;;;;;;;;;;;;;;5044335;28;5059;-57
2023/03/11 12:16:04;;;;;;;;;;;;;;;;;;5047704;28;4637;-57
2023/03/11 12:18:37;;;;;;;;;;;;;;;;;;5044259;28;4727;-57
2023/03/11 12:21:18;;;;;;;;;;;;;;;;;;5042028;28;4341;-57
2023/03/11 12:23:50;;;;;;;;;;;;;;;;;;5079050;28;4988;-56
2023/03/11 12:26:17;;;;;;;;;;;;;;;;;;5047302;28;4448;-56
2023/03/11 12:28:51;;;;;;;;;;;;;;;;;;5079431;28;5024;-56
2023/03/11 12:31:16;;;;;;;;;;;;;;;;;;5045634;28;4440;-56
2023/03/11 12:33:45;;;;;;;;;;;;;;;;;;5035514;28;4493;-56
2023/03/11 12:36:20;;;;;;;;;;;;;;;;;;5045770;28;1257;-56
2023/03/11 12:38:45;;;;;;;;;;;;;;;;;;5043926;28;4498;-56
2023/03/11 12:41:14;;;;;;;;;;;;;;;;;;5038230;28;4710;-56
2023/03/11 12:43:39;;;;;;;;;;;;;;;;;;5043017;28;5175;-57
2023/03/11 12:46:12;;;;;;;;;;;;;;;;;;5046532;28;4473;-56
2023/03/11 12:48:57;;;;;;;;;;;;;;;;;;5041480;28;1099;-56
2023/03/11 12:51:25;;;;;;;;;;;;;;;;;;5042443;28;4852;-56
2023/03/11 12:53:51;;;;;;;;;;;;;;;;;;5046349;28;5701;-58
2023/03/11 12:56:20;;;;;;;;;;;;;;;;;;5046295;28;5481;-56
2023/03/11 12:58:54;;;;;;;;;;;;;;;;;;5045225;28;4605;-56
2023/03/11 13:01:24;;;;;;;;;;;;;;;;;;5040331;28;4824;-56
2023/03/11 13:03:52;;;;;;;;;;;;;;;;;;5041539;28;4491;-56
2023/03/11 13:06:18;;;;;;;;;;;;;;;;;;5046773;28;1142;-58
2023/03/11 13:08:48;;;;;;;;;;;;;;;;;;5045750;28;4970;-58
2023/03/11 13:11:25;;;;;;;;;;;;;;;;;;5044873;28;4553;-58
2023/03/11 13:13:51;;;;;;;;;;;;;;;;;;5046203;28;4466;-58
2023/03/11 13:16:19;;;;;;;;;;;;;;;;;;5036833;28;4504;-59
2023/03/11 13:18:48;;;;;;;;;;;;;;;;;;5044601;28;4982;-58
2023/03/11 13:21:26;;;;;;;;;;;;;;;;;;5045281;28;1251;-58
2023/03/11 13:23:51;;;;;;;;;;;;;;;;;;5046320;28;5010;-57
2023/03/11 13:26:16;;;;;;;;;;;;;;;;;;5044762;28;4598;-57
2023/03/11 13:28:41;;;;;;;;;;;;;;;;;;5045649;28;4626;-57
2023/03/11 13:31:25;;;;;;;;;;;;;;;;;;5046328;28;4450;-57
2023/03/11 13:33:51;;;;;;;;;;;;;;;;;;5045929;28;4493;-57
2023/03/11 13:36:19;;;;;;;;;;;;;;;;;;5042761;28;1188;-57
2023/03/11 13:38:57;;;;;;;;;;;;;;;;;;5046552;28;4504;-57
2023/03/11 13:41:28;;;;;;;;;;;;;;;;;;5040088;28;4476;-58
2023/03/11 13:43:53;;;;;;;;;;;;;;;;;;5031010;28;4511;-58
2023/03/11 13:46:21;;;;;;;;;;;;;;;;;;5044600;28;4488;-58
2023/03/11 13:48:48;;;;;;;;;;;;;;;;;;5044821;28;4627;-58
2023/03/11 13:51:17;;;;;;;;;;;;;;;;;;5046384;28;1147;-57
2023/03/11 13:53:44;;;;;;;;;;;;;;;;;;5074962;28;4523;-58
2023/03/11 13:56:15;;;;;;;;;;;;;;;;;;5039628;28;4941;-57
2023/03/11 13:58:41;;;;;;;;;;;;;;;;;;5037441;28;4562;-57
2023/03/11 14:01:09;;;;;;;;;;;;;;;;;;5046082;28;5038;-58
2023/03/11 14:03:41;;;;;;;;;;;;;;;;;;5045101;28;1221;-56
2023/03/11 14:06:07;;;;;;;;;;;;;;;;;;5046485;28;4766;-57
2023/03/11 14:08:33;;;;;;;;;;;;;;;;;;5078297;28;4467;-57
2023/03/11 14:11:03;;;;;;;;;;;;;;;;;;5035569;28;4962;-58
2023/03/11 14:13:30;;;;;;;;;;;;;;;;;;5036260;28;5052;-58
2023/03/11 14:16:03;;;;;;;;;;;;;;;;;;5045952;28;4591;-57
2023/03/11 14:18:29;;;;;;;;;;;;;;;;;;5041730;28;4941;-58
2023/03/11 14:20:55;;;;;;;;;;;;;;;;;;5046028;28;4949;-58
2023/03/11 14:23:20;;;;;;;;;;;;;;;;;;5045655;28;4449;-57
2023/03/11 14:25:45;;;;;;;;;;;;;;;;;;5026337;28;4656;-57
2023/03/11 14:28:17;;;;;;;;;;;;;;;;;;5044051;28;4706;-57
2023/03/11 14:30:42;;;;;;;;;;;;;;;;;;5077602;28;4454;-58
2023/03/11 14:33:19;;;;;;;;;;;;;;;;;;5044674;28;1902;-58
2023/03/11 14:35:58;;;;;;;;;;;;;;;;;;5077632;28;5097;-58
2023/03/11 14:38:24;;;;;;;;;;;;;;;;;;5033372;28;5220;-58
2023/03/11 14:40:53;;;;;;;;;;;;;;;;;;5031824;28;4452;-57
2023/03/11 14:43:18;;;;;;;;;;;;;;;;;;5036461;28;4978;-58
2023/03/11 14:45:43;;;;;;;;;;;;;;;;;;5045756;28;4459;-57
2023/03/11 14:48:21;;;;;;;;;;;;;;;;;;5041487;28;1999;-57
2023/03/11 14:50:48;;;;;;;;;;;;;;;;;;5043815;28;5036;-57
2023/03/11 14:53:22;;;;;;;;;;;;;;;;;;5041567;28;4750;-57
2023/03/11 14:55:51;;;;;;;;;;;;;;;;;;5037038;28;4444;-57
2023/03/11 14:58:25;;;;;;;;;;;;;;;;;;5039241;28;4480;-57
2023/03/11 15:01:01;;;;;;;;;;;;;;;;;;5044198;28;4482;-57
2023/03/11 15:03:27;;;;;;;;;;;;;;;;;;5044322;28;1223;-57
2023/03/11 15:05:56;;;;;;;;;;;;;;;;;;5048896;28;4566;-57
2023/03/11 15:08:21;;;;;;;;;;;;;;;;;;5040596;28;4479;-57
2023/03/11 15:11:24;;;;;;;;;;;;;;;;;;5047343;28;4580;-57
2023/03/11 15:13:50;;;;;;;;;;;;;;;;;;5038334;28;5159;-58
2023/03/11 15:16:21;;;;;;;;;;;;;;;;;;5047815;28;4771;-57
2023/03/11 15:18:46;;;;;;;;;;;;;;;;;;5044809;28;4722;-57
2023/03/11 15:21:13;;;;;;;;;;;;;;;;;;5043669;28;1209;-58
2023/03/11 15:23:38;;;;;;;;;;;;;;;;;;5040021;28;4603;-57
2023/03/11 15:26:03;;;;;;;;;;;;;;;;;;5048584;28;4854;-57
2023/03/11 15:28:32;;;;;;;;;;;;;;;;;;5047797;28;4628;-57
2023/03/11 15:31:29;;;;;;;;;;;;;;;;;;5048863;28;5050;-57
2023/03/11 15:33:55;;;;;;;;;;;;;;;;;;5075710;28;5722;-57
2023/03/11 15:36:30;;;;;;;;;;;;;;;;;;5037701;28;1138;-57
2023/03/11 15:39:12;;;;;;;;;;;;;;;;;;5046768;28;4423;-57
2023/03/11 15:41:38;;;;;;;;;;;;;;;;;;5021827;28;4868;-58
2023/03/11 15:44:06;;;;;;;;;;;;;;;;;;5017863;28;4722;-58
2023/03/11 15:46:32;;;;;;;;;;;;;;;;;;5034017;28;4676;-58
2023/03/11 15:48:57;;;;;;;;;;;;;;;;;;5043300;28;4542;-59
2023/03/11 15:51:22;;;;;;;;;;;;;;;;;;5045196;28;1336;-58
2023/03/11 15:53:47;;;;;;;;;;;;;;;;;;5028259;28;4990;-58
2023/03/11 15:56:14;;;;;;;;;;;;;;;;;;5049216;28;4451;-58
2023/03/11 15:58:39;;;;;;;;;;;;;;;;;;5048406;28;4578;-58
2023/03/11 16:01:05;;;;;;;;;;;;;;;;;;5058141;28;4949;-66
2023/03/11 16:03:30;;;;;;;;;;;;;;;;;;5037857;28;3282;-56
2023/03/11 16:05:55;;;;;;;;;;;;;;;;;;5036994;28;4829;-56
2023/03/11 16:08:20;;;;;;;;;;;;;;;;;;5037706;28;4516;-57
2023/03/11 16:10:46;;;;;;;;;;;;;;;;;;5039865;28;4734;-59
2023/03/11 16:13:12;;;;;;;;;;;;;;;;;;5039212;28;4741;-55
2023/03/11 16:15:37;;;;;;;;;;;;;;;;;;5049342;28;3315;-58
2023/03/11 16:18:03;;;;;;;;;;;;;;;;;;5035001;28;4786;-57
2023/03/11 16:20:33;;;;;;;;;;;;;;;;;;5048109;28;4434;-57
2023/03/11 16:22:58;;;;;;;;;;;;;;;;;;5045411;28;4520;-59
2023/03/11 16:25:25;;;;;;;;;;;;;;;;;;5050032;28;4865;-55
2023/03/11 16:27:51;;;;;;;;;;;;;;;;;;5036485;28;4527;-56
2023/03/11 16:30:16;;;;;;;;;;;;;;;;;;5040661;28;3116;-57
2023/03/11 16:32:42;;;;;;;;;;;;;;;;;;5039928;28;4645;-58
2023/03/11 16:35:08;;;;;;;;;;;;;;;;;;5049991;28;5211;-59
2023/03/11 16:37:33;;;;;;;;;;;;;;;;;;5045418;28;5027;-58
2023/03/11 16:39:58;;;;;;;;;;;;;;;;;;5046099;28;4506;-59
2023/03/11 16:42:24;;;;;;;;;;;;;;;;;;5045902;28;3374;-58
2023/03/11 16:44:49;;;;;;;;;;;;;;;;;;5050422;28;4709;-61
2023/03/11 16:47:14;;;;;;;;;;;;;;;;;;5045440;28;4498;-59
2023/03/11 16:49:39;;;;;;;;;;;;;;;;;;5044155;28;4677;-59
2023/03/11 16:52:05;;;;;;;;;;;;;;;;;;5041682;28;5235;-59
2023/03/11 16:54:30;;;;;;;;;;;;;;;;;;5045223;28;3490;-61
2023/03/11 16:56:55;;;;;;;;;;;;;;;;;;5047554;28;5300;-58
2023/03/11 16:59:21;;;;;;;;;;;;;;;;;;5037444;28;4625;-59
2023/03/11 17:01:46;;;;;;;;;;;;;;;;;;5039397;28;4532;-59
2023/03/11 17:04:11;;;;;;;;;;;;;;;;;;5048017;28;4457;-59